Sao Francisco do Gloria, Brazil
Current Conditions -  °F | °C
As of 12:00 PM on Wednesday 26 Nov 2014 (Local Time) from SBCP Reporting Station
Clear Clear  
Wind Chill: 90°   Ceiling: Unl
Heat Index: 91°   Visibility: 6mi
Dew Point: 64°   Wind: 9mph
Humidity: 43%   Direction: 70°ENE
Pressure: 29.83"   Gusts: NA
Location:  20.79°S, 42.27°W
Report Text: SBCP 261400Z 07008KT CAVOK 32/18 Q1010
Loading
Personal Weather Stations






























Interactive Weather Map New forecast layout! Learn more

10-Day Weather Forecast

Advertisements
Track Severe Weather on mobile